Time;durP1;ratioP1;P1;durP2;ratioP2;P2;SDS_P1;SDS_P2;PMS_P1;PMS_P2;Temp;Humidity;BMP_temperature;BMP_pressure;BME280_temperature;BME280_humidity;BME280_pressure;Samples;Min_cycle;Max_cycle;Signal;HPM_P1;HPM_P2
2023/12/05 00:02:14;;;;;;;;;;;;;;;9.92;49.86;100130.25;4923436;28;98707;-66
2023/12/05 00:04:42;;;;;;;;;;;;;;;9.90;50.55;100110.84;4940386;28;98020;-66
2023/12/05 00:07:08;;;;;;;;;;;;;;;9.91;50.53;100114.38;4937334;28;98263;-66
2023/12/05 00:09:34;;;;;;;;;;;;;;;9.90;50.23;100118.91;4919383;28;118251;-71
2023/12/05 00:12:00;;;;;;;;;;;;;;;9.91;50.53;100115.19;4951706;28;98018;-66
2023/12/05 00:14:26;;;;;;;;;;;;;;;9.91;50.45;100114.38;4920932;28;128431;-71
2023/12/05 00:16:51;;;;;;;;;;;;;;;9.90;49.87;100118.91;4935581;28;120878;-67
2023/12/05 00:19:17;;;;;;;;;;;;;;;9.89;50.26;100125.41;4922621;28;126599;-66
2023/12/05 00:21:43;;;;;;;;;;;;;;;9.89;49.80;100119.19;4937744;28;98630;-66
2023/12/05 00:24:09;;;;;;;;;;;;;;;9.88;49.90;100120.28;4925371;28;99126;-66
2023/12/05 00:26:35;;;;;;;;;;;;;;;9.87;50.08;100119.50;4930427;28;98400;-71
2023/12/05 00:29:01;;;;;;;;;;;;;;;9.87;50.25;100122.19;4941613;28;98097;-71
2023/12/05 00:31:27;;;;;;;;;;;;;;;9.86;50.36;100117.84;4939578;28;98069;-66
2023/12/05 00:33:53;;;;;;;;;;;;;;;9.87;49.89;100116.78;4940822;28;125730;-66
2023/12/05 00:36:19;;;;;;;;;;;;;;;9.86;50.47;100112.47;4945133;28;97964;-71
2023/12/05 00:38:47;;;;;;;;;;;;;;;9.87;50.03;100100.66;4943426;28;97999;-66
2023/12/05 00:41:13;;;;;;;;;;;;;;;9.86;50.36;100108.97;4954219;28;108721;-66
2023/12/05 00:43:38;;;;;;;;;;;;;;;9.87;50.29;100102.53;4937873;28;129169;-66
2023/12/05 00:46:04;;;;;;;;;;;;;;;9.87;50.51;100103.34;4906678;28;130822;-66
2023/12/05 00:48:30;;;;;;;;;;;;;;;9.87;50.28;100091.75;4924099;28;100957;-66
2023/12/05 00:50:56;;;;;;;;;;;;;;;9.88;50.30;100079.91;4926305;28;98340;-66
2023/12/05 00:53:23;;;;;;;;;;;;;;;9.86;50.20;100074.78;4927995;28;100490;-71
2023/12/05 00:55:48;;;;;;;;;;;;;;;9.86;50.43;100079.34;4930085;28;99960;-71
2023/12/05 00:58:14;;;;;;;;;;;;;;;9.81;50.25;100072.09;4927005;28;124982;-66
2023/12/05 01:00:40;;;;;;;;;;;;;;;9.79;50.18;100072.38;4956902;28;117612;-70
2023/12/05 01:03:06;;;;;;;;;;;;;;;9.78;50.47;100069.94;4938628;28;98192;-71
2023/12/05 01:05:34;;;;;;;;;;;;;;;9.75;49.91;100074.00;4926681;28;97953;-65
2023/12/05 01:08:00;;;;;;;;;;;;;;;9.74;50.04;100074.25;4944741;28;98572;-71
2023/12/05 01:10:26;;;;;;;;;;;;;;;9.72;50.30;100071.03;4941102;28;98393;-66
2023/12/05 01:12:52;;;;;;;;;;;;;;;9.71;49.83;100070.25;4927373;28;98143;-71
2023/12/05 01:15:18;;;;;;;;;;;;;;;9.70;49.84;100079.38;4926561;28;114040;-71
2023/12/05 01:17:44;;;;;;;;;;;;;;;9.70;49.99;100075.88;4943074;28;111558;-71
2023/12/05 01:20:11;;;;;;;;;;;;;;;9.69;50.00;100064.31;4938318;28;97986;-66
2023/12/05 01:22:38;;;;;;;;;;;;;;;9.68;50.61;100060.00;4958677;28;100128;-66
2023/12/05 01:25:07;;;;;;;;;;;;;;;9.67;50.23;100053.03;4946642;28;98559;-67
2023/12/05 01:27:33;;;;;;;;;;;;;;;9.67;50.04;100068.34;4937443;28;98027;-66
2023/12/05 01:29:59;;;;;;;;;;;;;;;9.66;50.10;100061.34;4941018;28;98353;-65
2023/12/05 01:32:24;;;;;;;;;;;;;;;9.67;49.77;100065.66;4924166;28;101331;-71
2023/12/05 01:34:50;;;;;;;;;;;;;;;9.66;49.83;100064.03;4930064;28;127767;-71
2023/12/05 01:37:16;;;;;;;;;;;;;;;9.66;50.10;100078.31;4925168;28;110869;-66
2023/12/05 01:39:42;;;;;;;;;;;;;;;9.67;49.76;100082.63;4925087;28;98294;-71
2023/12/05 01:42:08;;;;;;;;;;;;;;;9.68;50.06;100083.44;4942871;28;98713;-71
2023/12/05 01:44:34;;;;;;;;;;;;;;;9.69;50.13;100083.16;4939518;28;100839;-66
2023/12/05 01:47:00;;;;;;;;;;;;;;;9.69;49.70;100075.06;4951598;28;98601;-71
2023/12/05 01:49:27;;;;;;;;;;;;;;;9.70;49.63;100078.56;4928933;28;98148;-66
2023/12/05 01:51:53;;;;;;;;;;;;;;;9.71;49.72;100081.00;4958927;28;98089;-71
2023/12/05 01:54:19;;;;;;;;;;;;;;;9.72;50.09;100076.44;4925001;28;100529;-66
2023/12/05 01:56:45;;;;;;;;;;;;;;;9.73;50.16;100072.66;4908029;28;113699;-71
2023/12/05 01:59:12;;;;;;;;;;;;;;;9.74;50.52;100076.94;4935316;28;97949;-71
2023/12/05 02:01:38;;;;;;;;;;;;;;;9.74;49.95;100079.66;4921957;28;99355;-71
2023/12/05 02:04:04;;;;;;;;;;;;;;;9.74;50.33;100077.75;4898820;28;99097;-71
2023/12/05 02:06:30;;;;;;;;;;;;;;;9.74;49.75;100068.88;4953990;28;98690;-71
2023/12/05 02:08:56;;;;;;;;;;;;;;;9.75;50.23;100063.25;4937532;28;98021;-66
2023/12/05 02:11:22;;;;;;;;;;;;;;;9.74;50.07;100066.19;4905180;28;130779;-71
2023/12/05 02:13:48;;;;;;;;;;;;;;;9.75;49.89;100062.44;4957133;28;98241;-71
2023/12/05 02:16:29;;;;;;;;;;;;;;;9.75;49.75;100060.53;4925239;28;99365;-71
2023/12/05 02:19:21;;;;;;;;;;;;;;;9.75;50.25;100055.16;4919752;28;98305;-71
2023/12/05 02:21:47;;;;;;;;;;;;;;;9.75;50.13;100057.06;4913681;28;98332;-71
2023/12/05 02:24:40;;;;;;;;;;;;;;;9.75;50.10;100054.34;4922581;28;98096;-71
2023/12/05 02:27:16;;;;;;;;;;;;;;;9.74;49.90;100048.16;4930269;28;97931;-66
2023/12/05 02:29:52;;;;;;;;;;;;;;;9.73;50.07;100043.84;4956536;27;98547;-71
2023/12/05 02:32:18;;;;;;;;;;;;;;;9.73;50.00;100043.03;4943104;28;98341;-66
2023/12/05 02:34:44;;;;;;;;;;;;;;;9.74;49.77;100045.44;4921834;28;101022;-71
2023/12/05 02:37:50;;;;;;;;;;;;;;;9.73;50.09;100040.34;4938810;28;99058;-72
2023/12/05 02:40:25;;;;;;;;;;;;;;;9.72;49.95;100036.06;4941072;28;98260;-71
2023/12/05 02:42:51;;;;;;;;;;;;;;;9.69;50.43;100029.31;4940776;28;98241;-71
2023/12/05 02:45:19;;;;;;;;;;;;;;;9.71;50.16;100039.84;4924521;28;98089;-66
2023/12/05 02:47:48;;;;;;;;;;;;;;;9.70;50.09;100036.31;4928393;28;100470;-72
2023/12/05 02:50:20;;;;;;;;;;;;;;;9.70;49.97;100036.31;4926257;28;109017;-66
2023/12/05 02:52:46;;;;;;;;;;;;;;;9.69;50.13;100023.13;4943459;28;127946;-72
2023/12/05 02:55:12;;;;;;;;;;;;;;;9.69;49.81;100029.31;4926475;28;98243;-72
2023/12/05 02:57:38;;;;;;;;;;;;;;;9.69;50.37;100025.81;4957468;28;101032;-66
2023/12/05 03:00:06;;;;;;;;;;;;;;;9.69;50.08;100023.13;4926176;28;98443;-72
2023/12/05 03:02:32;;;;;;;;;;;;;;;9.69;50.12;100028.53;4939334;28;98659;-67
2023/12/05 03:04:58;;;;;;;;;;;;;;;9.68;49.76;100026.91;4920231;28;100296;-71
2023/12/05 03:07:24;;;;;;;;;;;;;;;9.69;49.78;100015.88;4920161;28;127091;-71
2023/12/05 03:09:50;;;;;;;;;;;;;;;9.68;50.45;100014.25;4942384;28;116128;-67
2023/12/05 03:12:15;;;;;;;;;;;;;;;9.70;50.04;100008.59;4923610;28;123033;-72
2023/12/05 03:14:41;;;;;;;;;;;;;;;9.69;50.24;100013.16;4943854;28;126497;-71
2023/12/05 03:17:07;;;;;;;;;;;;;;;9.70;50.25;100020.16;4924871;28;98006;-71
2023/12/05 03:19:37;;;;;;;;;;;;;;;9.70;50.05;100014.78;4929109;28;99794;-67
2023/12/05 03:22:03;;;;;;;;;;;;;;;9.71;50.14;100012.91;4942951;28;98560;-66
2023/12/05 03:24:29;;;;;;;;;;;;;;;9.71;49.80;100007.53;4943877;28;108784;-66
2023/12/05 03:26:55;;;;;;;;;;;;;;;9.71;49.69;100004.84;4940496;28;125491;-71
2023/12/05 03:29:21;;;;;;;;;;;;;;;9.72;49.87;100011.84;4942661;28;108471;-71
2023/12/05 03:31:47;;;;;;;;;;;;;;;9.72;49.93;100006.44;4940837;28;99482;-66
2023/12/05 03:34:13;;;;;;;;;;;;;;;9.71;49.55;100005.66;4925047;28;126452;-66
2023/12/05 03:36:39;;;;;;;;;;;;;;;9.74;49.84;100007.78;4914245;28;116551;-66
2023/12/05 03:39:05;;;;;;;;;;;;;;;9.80;50.06;100005.88;4953217;28;104637;-71
2023/12/05 03:41:31;;;;;;;;;;;;;;;9.88;50.14;100001.84;4925195;28;98224;-66
2023/12/05 03:43:57;;;;;;;;;;;;;;;9.94;50.22;100000.72;4937761;28;98080;-71
2023/12/05 03:46:23;;;;;;;;;;;;;;;9.99;50.36;100001.53;4901542;28;99622;-71
2023/12/05 03:48:49;;;;;;;;;;;;;;;10.03;50.14;100004.47;4941076;28;102856;-71
2023/12/05 03:51:15;;;;;;;;;;;;;;;10.05;50.07;100000.41;4902455;28;124722;-71
2023/12/05 03:53:41;;;;;;;;;;;;;;;10.10;50.27;99999.63;4938175;28;98363;-66
2023/12/05 03:56:08;;;;;;;;;;;;;;;10.12;49.92;100000.13;4922149;28;125851;-71
2023/12/05 03:58:33;;;;;;;;;;;;;;;10.14;49.99;100002.53;4921961;28;98241;-71
2023/12/05 04:00:59;;;;;;;;;;;;;;;10.15;50.26;99996.91;4937320;28;129018;-66
2023/12/05 04:03:25;;;;;;;;;;;;;;;10.16;50.36;100008.47;4940936;28;110214;-71
2023/12/05 04:05:51;;;;;;;;;;;;;;;10.17;49.89;100008.19;4945207;28;98240;-71
2023/12/05 04:08:17;;;;;;;;;;;;;;;10.18;50.00;100006.28;4925814;28;113490;-71
2023/12/05 04:10:43;;;;;;;;;;;;;;;10.18;50.03;100008.97;4943143;28;123241;-71
2023/12/05 04:13:09;;;;;;;;;;;;;;;10.19;50.20;100008.72;4929082;28;98418;-71
2023/12/05 04:15:35;;;;;;;;;;;;;;;10.19;50.19;100008.72;4925862;28;112589;-66
2023/12/05 04:18:01;;;;;;;;;;;;;;;10.20;49.85;100002.25;4911756;28;98175;-71
2023/12/05 04:20:27;;;;;;;;;;;;;;;10.20;50.03;99996.06;4901623;28;111207;-71
2023/12/05 04:22:53;;;;;;;;;;;;;;;10.20;50.08;100002.25;4943414;28;99902;-71
2023/12/05 04:25:19;;;;;;;;;;;;;;;10.20;49.98;100002.25;4944236;28;99391;-66
2023/12/05 04:27:45;;;;;;;;;;;;;;;10.20;50.07;100006.84;4941383;28;117180;-66
2023/12/05 04:30:11;;;;;;;;;;;;;;;10.19;49.98;100005.22;4931221;28;107543;-71
2023/12/05 04:32:37;;;;;;;;;;;;;;;10.19;49.99;100010.63;4919376;28;100162;-70
2023/12/05 04:35:04;;;;;;;;;;;;;;;10.18;50.02;100003.59;4905040;28;100959;-71
2023/12/05 04:37:29;;;;;;;;;;;;;;;10.19;49.99;100008.72;4919832;28;98300;-71
2023/12/05 04:39:55;;;;;;;;;;;;;;;10.18;49.97;100007.13;4919930;28;128956;-66
2023/12/05 04:42:21;;;;;;;;;;;;;;;10.18;49.79;100003.59;4926090;28;125391;-71
2023/12/05 04:44:47;;;;;;;;;;;;;;;10.17;50.12;100008.19;4923394;28;127676;-66
2023/12/05 04:47:13;;;;;;;;;;;;;;;10.17;50.37;100010.88;4924086;28;98400;-71
2023/12/05 04:49:40;;;;;;;;;;;;;;;10.17;50.36;100007.38;4927845;28;98056;-66
2023/12/05 04:52:06;;;;;;;;;;;;;;;10.15;50.47;100013.06;4927970;28;98439;-71
2023/12/05 04:54:31;;;;;;;;;;;;;;;10.16;50.39;100021.94;4928456;28;121561;-66
2023/12/05 04:56:57;;;;;;;;;;;;;;;10.15;50.46;100014.94;4927267;28;98074;-66
2023/12/05 04:59:23;;;;;;;;;;;;;;;10.14;50.21;100019.53;4926573;28;125878;-66
2023/12/05 05:01:50;;;;;;;;;;;;;;;10.14;50.03;100018.69;4924907;28;98042;-66
2023/12/05 05:04:16;;;;;;;;;;;;;;;10.12;49.68;100024.38;4905925;28;98959;-70
2023/12/05 05:06:42;;;;;;;;;;;;;;;10.12;49.99;100013.59;4909751;28;98068;-66
2023/12/05 05:09:08;;;;;;;;;;;;;;;10.13;49.92;100019.78;4929120;28;98480;-70
2023/12/05 05:11:34;;;;;;;;;;;;;;;10.11;50.16;100012.00;4910833;28;113520;-70
2023/12/05 05:14:00;;;;;;;;;;;;;;;10.11;50.48;100006.59;4933363;28;107762;-66
2023/12/05 05:16:26;;;;;;;;;;;;;;;10.11;50.28;100013.88;4943683;28;119574;-66
2023/12/05 05:18:53;;;;;;;;;;;;;;;10.10;49.82;100007.69;4935370;28;98803;-65
2023/12/05 05:21:19;;;;;;;;;;;;;;;10.10;49.90;100018.47;4926564;28;98740;-66
2023/12/05 05:23:45;;;;;;;;;;;;;;;10.10;50.41;100015.78;4926156;28;108669;-71
2023/12/05 05:26:11;;;;;;;;;;;;;;;10.08;49.75;100009.84;4919573;28;98861;-68
2023/12/05 05:28:36;;;;;;;;;;;;;;;10.08;50.06;100015.22;4897458;28;98166;-66
2023/12/05 05:31:03;;;;;;;;;;;;;;;10.07;50.27;100016.31;4930739;28;99722;-65
2023/12/05 05:33:28;;;;;;;;;;;;;;;10.07;50.36;100025.19;4921048;28;98060;-70
2023/12/05 05:35:55;;;;;;;;;;;;;;;10.06;50.24;100023.59;4938670;28;99478;-65
2023/12/05 05:38:21;;;;;;;;;;;;;;;10.05;50.24;100027.34;4926281;28;98157;-66
2023/12/05 05:40:47;;;;;;;;;;;;;;;10.03;49.99;100023.34;4946780;28;99739;-66
2023/12/05 05:43:13;;;;;;;;;;;;;;;10.02;49.99;100022.53;4937944;28;99112;-70
2023/12/05 05:45:39;;;;;;;;;;;;;;;10.02;50.38;100025.22;4954046;28;117939;-71
2023/12/05 05:48:05;;;;;;;;;;;;;;;10.02;49.76;100024.38;4936344;28;107194;-66
2023/12/05 05:50:31;;;;;;;;;;;;;;;10.00;50.20;100019.28;4924492;28;98244;-70
2023/12/05 05:52:57;;;;;;;;;;;;;;;10.00;50.15;100023.88;4934347;28;99271;-71
2023/12/05 05:55:24;;;;;;;;;;;;;;;9.97;49.88;100013.66;4939247;28;98194;-70
2023/12/05 05:57:51;;;;;;;;;;;;;;;9.97;49.83;100014.44;4934086;28;98726;-70
2023/12/05 06:00:17;;;;;;;;;;;;;;;9.96;49.83;100015.53;4940837;28;98278;-70
2023/12/05 06:02:46;;;;;;;;;;;;;;;9.94;50.10;100016.88;4927287;28;98331;-66
2023/12/05 06:05:12;;;;;;;;;;;;;;;9.93;50.24;100008.00;4937611;28;98963;-70
2023/12/05 06:07:39;;;;;;;;;;;;;;;9.91;49.79;100006.69;4941310;28;127943;-66
2023/12/05 06:10:05;;;;;;;;;;;;;;;9.89;50.13;100009.63;4936053;28;99536;-71
2023/12/05 06:12:32;;;;;;;;;;;;;;;9.88;50.06;100012.59;4909144;28;98915;-66
2023/12/05 06:14:58;;;;;;;;;;;;;;;9.86;49.81;100020.13;4936153;28;98740;-66
2023/12/05 06:17:24;;;;;;;;;;;;;;;9.84;50.10;100018.53;4922794;28;119542;-70
2023/12/05 06:19:50;;;;;;;;;;;;;;;9.84;50.15;100021.22;4890769;28;127373;-66
2023/12/05 06:22:16;;;;;;;;;;;;;;;9.84;50.07;100023.09;4904662;28;99355;-66
2023/12/05 06:24:42;;;;;;;;;;;;;;;9.84;50.02;100021.22;4905240;28;98448;-71
2023/12/05 06:27:08;;;;;;;;;;;;;;;9.82;50.35;100026.09;4890477;28;97957;-66
2023/12/05 06:29:34;;;;;;;;;;;;;;;9.82;49.80;100023.41;4922985;28;103993;-66
2023/12/05 06:32:00;;;;;;;;;;;;;;;9.85;50.16;100013.94;4907074;28;99235;-66
2023/12/05 06:34:26;;;;;;;;;;;;;;;9.85;50.16;100013.94;4919535;28;117722;-71
2023/12/05 06:36:52;;;;;;;;;;;;;;;9.86;49.72;100023.63;4903824;28;100356;-66
2023/12/05 06:39:18;;;;;;;;;;;;;;;9.86;50.04;100007.47;4913669;28;127463;-66
2023/12/05 06:41:44;;;;;;;;;;;;;;;9.87;50.21;100006.41;4918733;28;99066;-71
2023/12/05 06:44:10;;;;;;;;;;;;;;;9.88;50.16;100008.03;4921562;28;98758;-71
2023/12/05 06:46:36;;;;;;;;;;;;;;;9.89;50.00;100001.56;4922192;28;98427;-66
2023/12/05 06:49:03;;;;;;;;;;;;;;;9.90;49.67;100003.16;4905824;28;98370;-71
2023/12/05 06:51:29;;;;;;;;;;;;;;;9.92;49.80;100008.28;4906757;28;97856;-70
2023/12/05 06:53:55;;;;;;;;;;;;;;;9.92;50.10;100003.69;4904851;28;98439;-70
2023/12/05 06:56:21;;;;;;;;;;;;;;;9.93;50.16;100012.59;4922525;28;98024;-71
2023/12/05 06:58:47;;;;;;;;;;;;;;;9.94;50.22;100006.94;4908049;28;106824;-66
2023/12/05 07:01:13;;;;;;;;;;;;;;;9.95;50.10;100002.34;4919972;28;116719;-66
2023/12/05 07:03:39;;;;;;;;;;;;;;;9.98;50.07;100004.47;4886748;28;101136;-66
2023/12/05 07:06:06;;;;;;;;;;;;;;;10.00;49.79;100005.03;4902922;28;104688;-66
2023/12/05 07:08:31;;;;;;;;;;;;;;;10.00;49.71;100008.53;4887760;28;98231;-66
2023/12/05 07:10:59;;;;;;;;;;;;;;;10.03;49.61;100012.56;4926859;28;101287;-66
2023/12/05 07:13:25;;;;;;;;;;;;;;;10.04;49.95;100012.28;4885553;28;98141;-71
2023/12/05 07:15:51;;;;;;;;;;;;;;;10.08;49.95;100015.22;4888894;28;120935;-66
2023/12/05 07:18:17;;;;;;;;;;;;;;;10.09;49.97;100012.25;4885787;28;97972;-71
2023/12/05 07:20:43;;;;;;;;;;;;;;;10.11;49.87;100013.88;4920248;28;98475;-66
2023/12/05 07:23:09;;;;;;;;;;;;;;;10.14;49.61;100002.53;4894956;28;106605;-66
2023/12/05 07:25:34;;;;;;;;;;;;;;;10.16;49.71;100006.56;4890912;28;98341;-71
2023/12/05 07:28:00;;;;;;;;;;;;;;;10.20;49.82;100004.94;4900031;28;99242;-66
2023/12/05 07:30:26;;;;;;;;;;;;;;;10.25;49.66;100009.53;4888198;28;130413;-66
2023/12/05 07:32:52;;;;;;;;;;;;;;;10.30;49.52;100012.22;4887830;28;113146;-66
2023/12/05 07:35:18;;;;;;;;;;;;;;;10.36;49.67;100019.19;4908933;28;99789;-66
2023/12/05 07:37:44;;;;;;;;;;;;;;;10.43;50.03;100022.38;4908954;28;109997;-66
2023/12/05 07:40:11;;;;;;;;;;;;;;;10.50;49.84;100022.91;4889207;28;98119;-70
2023/12/05 07:42:37;;;;;;;;;;;;;;;10.56;49.89;100018.28;4920173;28;98037;-66
2023/12/05 07:45:05;;;;;;;;;;;;;;;10.62;49.73;100016.38;4901145;28;101416;-71
2023/12/05 07:47:31;;;;;;;;;;;;;;;10.66;49.89;100017.44;4906649;28;98028;-70
2023/12/05 07:49:57;;;;;;;;;;;;;;;10.69;49.66;100019.53;4904986;28;102816;-71
2023/12/05 07:52:22;;;;;;;;;;;;;;;10.70;49.88;100024.69;4889262;28;98132;-71
2023/12/05 07:54:48;;;;;;;;;;;;;;;10.72;49.73;100021.69;4888690;28;128522;-71
2023/12/05 07:57:21;;;;;;;;;;;;;;;10.73;49.37;100034.91;4905383;28;98197;-66
2023/12/05 07:59:48;;;;;;;;;;;;;;;10.74;49.68;100022.25;4903074;28;99068;-71
2023/12/05 08:02:14;;;;;;;;;;;;;;;10.74;49.76;100028.44;4904197;28;108334;-71
2023/12/05 08:04:41;;;;;;;;;;;;;;;10.73;50.06;100024.13;4899070;28;98780;-66
2023/12/05 08:07:08;;;;;;;;;;;;;;;10.76;49.53;100033.53;4913888;28;98414;-66
2023/12/05 08:09:34;;;;;;;;;;;;;;;10.76;49.62;100025.44;4901361;28;98865;-71
2023/12/05 08:12:00;;;;;;;;;;;;;;;10.76;49.46;100026.25;4906214;28;97974;-71
2023/12/05 08:14:26;;;;;;;;;;;;;;;10.78;49.65;100028.69;4907328;28;98706;-71
2023/12/05 08:16:52;;;;;;;;;;;;;;;10.80;49.74;100031.88;4886237;28;102754;-71
2023/12/05 08:19:18;;;;;;;;;;;;;;;10.84;49.75;100038.34;4903526;28;98309;-71
2023/12/05 08:21:44;;;;;;;;;;;;;;;10.86;49.75;100029.97;4905871;28;105510;-71
2023/12/05 08:24:10;;;;;;;;;;;;;;;10.90;49.65;100031.84;4921056;28;99357;-66
2023/12/05 08:26:36;;;;;;;;;;;;;;;10.92;49.51;100026.94;4917941;28;98521;-71
2023/12/05 08:29:02;;;;;;;;;;;;;;;10.94;49.61;100042.88;4890885;28;98552;-66
2023/12/05 08:31:28;;;;;;;;;;;;;;;10.97;49.61;100036.94;4922033;28;98368;-71
2023/12/05 08:33:54;;;;;;;;;;;;;;;11.00;49.41;100036.34;4923365;28;98772;-71
2023/12/05 08:36:20;;;;;;;;;;;;;;;11.02;49.61;100032.28;4906414;28;128012;-71
2023/12/05 08:38:46;;;;;;;;;;;;;;;11.06;49.53;100029.84;4918062;28;98342;-66
2023/12/05 08:41:19;;;;;;;;;;;;;;;11.12;49.70;100031.44;4907265;28;98200;-71
2023/12/05 08:43:46;;;;;;;;;;;;;;;11.19;49.55;100039.97;4941064;28;98301;-66
2023/12/05 08:46:12;;;;;;;;;;;;;;;11.24;49.51;100031.06;4906874;28;99447;-71
2023/12/05 08:48:39;;;;;;;;;;;;;;;11.29;49.72;100031.03;4917167;28;123694;-71
2023/12/05 08:51:06;;;;;;;;;;;;;;;11.31;49.55;100028.81;4917406;28;98162;-66
2023/12/05 08:53:32;;;;;;;;;;;;;;;11.35;49.55;100031.78;4910582;28;122707;-71
2023/12/05 08:55:58;;;;;;;;;;;;;;;11.37;49.48;100037.72;4921149;28;109568;-71
2023/12/05 08:58:24;;;;;;;;;;;;;;;11.38;49.65;100040.09;4907828;28;98135;-69
2023/12/05 09:00:50;;;;;;;;;;;;;;;11.39;49.53;100044.41;4925116;28;98331;-71
2023/12/05 09:03:18;;;;;;;;;;;;;;;11.40;49.69;100039.84;4927258;28;104595;-71
2023/12/05 09:05:45;;;;;;;;;;;;;;;11.41;49.36;100041.44;4919998;28;99627;-66
2023/12/05 09:08:11;;;;;;;;;;;;;;;11.41;49.69;100046.84;4938420;28;98061;-71
2023/12/05 09:10:37;;;;;;;;;;;;;;;11.40;49.57;100042.53;4924661;28;98231;-71
2023/12/05 09:13:02;;;;;;;;;;;;;;;11.40;49.65;100051.44;4926868;28;113549;-66
2023/12/05 09:15:29;;;;;;;;;;;;;;;11.39;49.70;100055.22;4909059;28;98244;-71
2023/12/05 09:17:55;;;;;;;;;;;;;;;11.38;49.87;100053.59;4908435;28;99733;-71
2023/12/05 09:20:20;;;;;;;;;;;;;;;11.39;49.68;100046.31;4902131;28;98028;-67
2023/12/05 09:22:46;;;;;;;;;;;;;;;11.39;49.80;100049.00;4890799;28;127439;-66
2023/12/05 09:25:12;;;;;;;;;;;;;;;11.40;49.66;100039.84;4894046;28;99625;-66
2023/12/05 09:27:38;;;;;;;;;;;;;;;11.40;49.78;100046.03;4906733;28;105986;-66
2023/12/05 09:30:05;;;;;;;;;;;;;;;11.41;49.52;100047.66;4908403;28;117182;-66
2023/12/05 09:32:31;;;;;;;;;;;;;;;11.41;49.69;100038.75;4906569;28;98271;-70
2023/12/05 09:34:57;;;;;;;;;;;;;;;11.41;49.70;100041.44;4907329;28;126972;-70
2023/12/05 09:37:23;;;;;;;;;;;;;;;11.41;49.63;100046.84;4914668;28;98133;-66
2023/12/05 09:39:49;;;;;;;;;;;;;;;11.41;49.63;100044.16;4913842;28;98036;-66
2023/12/05 09:42:15;;;;;;;;;;;;;;;11.41;49.75;100041.44;4910160;28;100424;-66
2023/12/05 09:44:46;;;;;;;;;;;;;;;11.42;49.81;100037.66;4888166;28;100627;-70
2023/12/05 09:47:13;;;;;;;;;;;;;;;11.42;49.81;100038.47;4887848;28;98864;-71
2023/12/05 09:49:38;;;;;;;;;;;;;;;11.44;49.71;100038.19;4893023;28;98210;-66
2023/12/05 09:52:05;;;;;;;;;;;;;;;11.44;50.03;100030.09;4895896;28;130377;-70
2023/12/05 09:54:31;;;;;;;;;;;;;;;11.46;49.58;100041.41;4889721;28;101385;-66
2023/12/05 09:56:57;;;;;;;;;;;;;;;11.48;49.73;100031.13;4919457;28;98249;-66
2023/12/05 09:59:23;;;;;;;;;;;;;;;11.49;49.72;100027.34;4901981;28;98430;-71
2023/12/05 10:01:49;;;;;;;;;;;;;;;11.51;49.81;100027.84;4909479;28;100039;-66
2023/12/05 10:04:17;;;;;;;;;;;;;;;11.49;49.64;100022.75;4892941;28;98952;-66
2023/12/05 10:06:44;;;;;;;;;;;;;;;11.50;49.65;100020.84;4902254;28;125540;-66
2023/12/05 10:09:10;;;;;;;;;;;;;;;11.48;49.81;100017.63;4918013;28;98669;-66
2023/12/05 10:11:36;;;;;;;;;;;;;;;11.50;49.59;100015.44;4921147;28;98502;-70
2023/12/05 10:14:02;;;;;;;;;;;;;;;11.52;49.65;100013.28;4904148;28;119274;-70
2023/12/05 10:16:28;;;;;;;;;;;;;;;11.53;49.60;100013.00;4890407;28;98060;-71
2023/12/05 10:18:54;;;;;;;;;;;;;;;11.57;49.71;100007.03;4907816;28;98033;-71
2023/12/05 10:21:20;;;;;;;;;;;;;;;11.60;49.64;100006.47;4902602;28;98433;-66
2023/12/05 10:23:46;;;;;;;;;;;;;;;11.63;49.88;100001.31;4887416;28;124388;-66
2023/12/05 10:26:12;;;;;;;;;;;;;;;11.66;49.73;99994.50;4885587;28;98247;-71
2023/12/05 10:28:51;;;;;;;;;;;;;;;11.68;49.71;99993.16;4906853;28;97993;-66
2023/12/05 10:31:18;;;;;;;;;;;;;;;11.72;49.61;99996.88;4889847;28;100369;-70
2023/12/05 10:33:45;;;;;;;;;;;;;;;11.76;49.58;100002.53;4907426;28;98298;-66
2023/12/05 10:36:12;;;;;;;;;;;;;;;11.78;49.70;99993.03;4888588;28;98430;-70
2023/12/05 10:38:38;;;;;;;;;;;;;;;11.82;49.62;100003.25;4905115;28;98595;-70
2023/12/05 10:41:04;;;;;;;;;;;;;;;11.83;49.55;99996.75;4905189;28;128301;-70
2023/12/05 10:43:33;;;;;;;;;;;;;;;11.86;49.69;99996.22;4887840;28;116181;-66
2023/12/05 10:46:03;;;;;;;;;;;;;;;11.85;49.57;100000.03;4905006;28;99040;-70
2023/12/05 10:48:29;;;;;;;;;;;;;;;11.87;49.62;99995.13;4909460;28;98014;-70
2023/12/05 10:50:56;;;;;;;;;;;;;;;11.87;49.62;99995.13;4925085;28;99484;-70
2023/12/05 10:53:22;;;;;;;;;;;;;;;11.88;49.64;99994.84;4890633;28;97984;-66
2023/12/05 10:55:48;;;;;;;;;;;;;;;11.89;49.48;99987.56;4891793;28;98076;-66
2023/12/05 10:58:14;;;;;;;;;;;;;;;11.90;49.51;99989.94;4897196;28;98482;-70
2023/12/05 11:00:40;;;;;;;;;;;;;;;11.93;49.77;99981.28;4903157;28;99582;-66
2023/12/05 11:03:06;;;;;;;;;;;;;;;11.94;49.52;99982.88;4892315;28;99477;-66
2023/12/05 11:05:33;;;;;;;;;;;;;;;11.96;49.58;99985.31;4905196;28;97992;-66
2023/12/05 11:07:59;;;;;;;;;;;;;;;11.96;49.68;99975.31;4920942;28;99400;-71
2023/12/05 11:10:26;;;;;;;;;;;;;;;11.98;49.75;99975.81;4904893;28;98991;-71
2023/12/05 11:12:53;;;;;;;;;;;;;;;12.01;49.55;99986.06;4921987;28;98159;-71
2023/12/05 11:15:23;;;;;;;;;;;;;;;12.04;49.68;99982.78;4915089;28;98678;-70
2023/12/05 11:17:53;;;;;;;;;;;;;;;12.09;49.42;99978.41;4923638;28;98997;-70
2023/12/05 11:20:25;;;;;;;;;;;;;;;12.13;49.56;99980.25;4918835;28;98748;-70
2023/12/05 11:23:22;;;;;;;;;;;;;;;12.17;49.59;99977.75;4928729;28;98125;-70
2023/12/05 11:26:12;;;;;;;;;;;;;;;12.21;49.57;99978.78;4925025;28;103285;-65
2023/12/05 11:29:11;;;;;;;;;;;;;;;12.23;49.59;99980.13;4900154;28;98783;-65
2023/12/05 11:31:58;;;;;;;;;;;;;;;12.26;49.36;99979.53;4935275;28;109459;-70
2023/12/05 11:34:48;;;;;;;;;;;;;;;12.29;49.56;99981.66;4943158;28;99339;-70
2023/12/05 11:37:39;;;;;;;;;;;;;;;12.29;49.72;99986.25;4902210;28;99388;-66
2023/12/05 11:40:06;;;;;;;;;;;;;;;12.26;49.69;99986.81;4940730;28;97923;-66
2023/12/05 11:42:34;;;;;;;;;;;;;;;12.25;49.47;99985.22;4906882;28;98294;-66
2023/12/05 11:45:22;;;;;;;;;;;;;;;12.23;49.61;99973.91;4911581;28;98335;-66
2023/12/05 11:47:48;;;;;;;;;;;;;;;12.18;49.53;99985.59;4935427;28;98239;-66
2023/12/05 11:50:17;;;;;;;;;;;;;;;12.16;49.68;99976.97;4926791;28;98665;-66
2023/12/05 11:52:44;;;;;;;;;;;;;;;12.12;49.76;99985.94;4907977;28;111623;-71
2023/12/05 11:55:11;;;;;;;;;;;;;;;12.09;49.79;99981.91;4921904;28;99156;-66
2023/12/05 11:57:37;;;;;;;;;;;;;;;12.06;50.11;99977.06;4903169;28;97921;-71
2023/12/05 12:00:04;;;;;;;;;;;;;;;12.06;49.93;99982.47;4910826;28;97931;-71
2023/12/05 12:02:32;;;;;;;;;;;;;;;12.05;49.90;99983.56;4938928;28;98790;-71
2023/12/05 12:05:05;;;;;;;;;;;;;;;12.04;49.85;99976.56;4937448;28;97947;-71
2023/12/05 12:07:31;;;;;;;;;;;;;;;12.02;49.86;99976.03;4927403;28;98846;-66
2023/12/05 12:09:57;;;;;;;;;;;;;;;12.01;49.81;99975.25;4919817;28;98307;-71
2023/12/05 12:12:23;;;;;;;;;;;;;;;12.03;49.90;99969.56;4898465;28;129464;-66
2023/12/05 12:14:49;;;;;;;;;;;;;;;12.04;49.72;99968.47;4903291;28;98053;-66
2023/12/05 12:17:15;;;;;;;;;;;;;;;12.03;49.71;99972.28;4917698;28;98071;-66
2023/12/05 12:19:41;;;;;;;;;;;;;;;12.01;49.85;99969.84;4935043;28;98854;-66
2023/12/05 12:22:12;;;;;;;;;;;;;;;12.02;49.69;99962.53;4921020;28;98053;-66
2023/12/05 12:24:39;;;;;;;;;;;;;;;12.03;49.87;99964.97;4909733;28;98716;-66
2023/12/05 12:27:07;;;;;;;;;;;;;;;12.03;49.92;99970.38;4920059;28;98253;-71
2023/12/05 12:29:32;;;;;;;;;;;;;;;12.02;49.77;99966.06;4908050;28;98371;-66
2023/12/05 12:32:10;;;;;;;;;;;;;;;12.07;49.82;99967.09;4929506;28;98289;-66
2023/12/05 12:34:37;;;;;;;;;;;;;;;12.08;49.98;99969.50;4922447;28;100171;-71
2023/12/05 12:37:05;;;;;;;;;;;;;;;12.07;49.74;99961.69;4913382;28;99425;-66
2023/12/05 12:39:33;;;;;;;;;;;;;;;12.07;49.89;99976.00;4925160;28;98210;-71